sensor_id;sensor_type;location;lat;lon;timestamp;P1;durP1;ratioP1;P2;durP2;ratioP2
11865;SDS011;5992;52.744;6.898;2022-10-16T00:01:39;2.33;;;1.40;;
11865;SDS011;5992;52.744;6.898;2022-10-16T00:04:52;4.07;;;1.10;;
11865;SDS011;5992;52.744;6.898;2022-10-16T00:07:52;6.47;;;1.67;;
11865;SDS011;5992;52.744;6.898;2022-10-16T00:11:18;3.57;;;1.33;;
11865;SDS011;5992;52.744;6.898;2022-10-16T00:14:29;3.10;;;1.50;;
11865;SDS011;5992;52.744;6.898;2022-10-16T00:17:53;5.05;;;1.45;;
11865;SDS011;5992;52.744;6.898;2022-10-16T00:20:53;2.35;;;1.20;;
11865;SDS011;5992;52.744;6.898;2022-10-16T00:24:17;1.95;;;1.40;;
11865;SDS011;5992;52.744;6.898;2022-10-16T00:27:21;3.15;;;0.90;;
11865;SDS011;5992;52.744;6.898;2022-10-16T00:30:46;3.70;;;1.65;;
11865;SDS011;5992;52.744;6.898;2022-10-16T00:33:47;2.70;;;1.70;;
11865;SDS011;5992;52.744;6.898;2022-10-16T00:37:11;3.85;;;1.50;;
11865;SDS011;5992;52.744;6.898;2022-10-16T00:40:14;4.33;;;1.23;;
11865;SDS011;5992;52.744;6.898;2022-10-16T00:43:34;1.23;;;1.13;;
11865;SDS011;5992;52.744;6.898;2022-10-16T00:46:46;1.60;;;1.30;;
11865;SDS011;5992;52.744;6.898;2022-10-16T00:49:59;3.70;;;1.03;;
11865;SDS011;5992;52.744;6.898;2022-10-16T00:53:10;2.70;;;1.20;;
11865;SDS011;5992;52.744;6.898;2022-10-16T00:56:34;1.60;;;1.20;;
11865;SDS011;5992;52.744;6.898;2022-10-16T00:59:38;4.50;;;1.60;;
11865;SDS011;5992;52.744;6.898;2022-10-16T01:03:01;1.50;;;1.40;;
11865;SDS011;5992;52.744;6.898;2022-10-16T01:06:19;2.70;;;1.70;;
11865;SDS011;5992;52.744;6.898;2022-10-16T01:09:47;3.45;;;1.60;;
11865;SDS011;5992;52.744;6.898;2022-10-16T01:12:58;1.00;;;1.00;;
11865;SDS011;5992;52.744;6.898;2022-10-16T01:16:24;2.57;;;1.50;;
11865;SDS011;5992;52.744;6.898;2022-10-16T01:19:56;1.50;;;1.40;;
11865;SDS011;5992;52.744;6.898;2022-10-16T01:23:21;1.37;;;1.30;;
11865;SDS011;5992;52.744;6.898;2022-10-16T01:26:37;3.40;;;1.60;;
11865;SDS011;5992;52.744;6.898;2022-10-16T01:30:06;3.67;;;1.40;;
11865;SDS011;5992;52.744;6.898;2022-10-16T01:33:20;1.70;;;1.25;;
11865;SDS011;5992;52.744;6.898;2022-10-16T01:36:42;1.90;;;1.45;;
11865;SDS011;5992;52.744;6.898;2022-10-16T01:39:53;1.50;;;1.40;;
11865;SDS011;5992;52.744;6.898;2022-10-16T01:43:20;2.65;;;1.40;;
11865;SDS011;5992;52.744;6.898;2022-10-16T01:46:34;1.50;;;1.40;;
11865;SDS011;5992;52.744;6.898;2022-10-16T01:50:02;2.33;;;1.40;;
11865;SDS011;5992;52.744;6.898;2022-10-16T01:53:13;2.35;;;1.20;;
11865;SDS011;5992;52.744;6.898;2022-10-16T01:56:37;1.20;;;1.10;;
11865;SDS011;5992;52.744;6.898;2022-10-16T02:00:03;1.67;;;1.40;;
11865;SDS011;5992;52.744;6.898;2022-10-16T02:03:27;4.90;;;1.70;;
11865;SDS011;5992;52.744;6.898;2022-10-16T02:06:52;2.50;;;1.40;;
11865;SDS011;5992;52.744;6.898;2022-10-16T02:10:04;2.53;;;1.40;;
11865;SDS011;5992;52.744;6.898;2022-10-16T02:13:30;1.65;;;1.55;;
11865;SDS011;5992;52.744;6.898;2022-10-16T02:16:41;2.37;;;1.10;;
11865;SDS011;5992;52.744;6.898;2022-10-16T02:20:07;1.50;;;1.27;;
11865;SDS011;5992;52.744;6.898;2022-10-16T02:23:28;3.80;;;1.40;;
11865;SDS011;5992;52.744;6.898;2022-10-16T02:26:57;2.77;;;1.30;;
11865;SDS011;5992;52.744;6.898;2022-10-16T02:30:07;4.13;;;1.77;;
11865;SDS011;5992;52.744;6.898;2022-10-16T02:33:31;2.85;;;1.25;;
11865;SDS011;5992;52.744;6.898;2022-10-16T02:36:45;1.95;;;1.30;;
11865;SDS011;5992;52.744;6.898;2022-10-16T02:40:10;3.03;;;1.40;;
11865;SDS011;5992;52.744;6.898;2022-10-16T02:43:22;3.33;;;1.33;;
11865;SDS011;5992;52.744;6.898;2022-10-16T02:46:46;4.30;;;1.50;;
11865;SDS011;5992;52.744;6.898;2022-10-16T02:49:46;1.30;;;1.20;;
11865;SDS011;5992;52.744;6.898;2022-10-16T02:53:00;1.65;;;1.20;;
11865;SDS011;5992;52.744;6.898;2022-10-16T02:56:12;2.53;;;1.30;;
11865;SDS011;5992;52.744;6.898;2022-10-16T02:59:28;12.45;;;1.55;;
11865;SDS011;5992;52.744;6.898;2022-10-16T03:02:29;3.43;;;1.40;;
11865;SDS011;5992;52.744;6.898;2022-10-16T03:05:42;3.20;;;1.67;;
11865;SDS011;5992;52.744;6.898;2022-10-16T03:08:56;2.45;;;1.60;;
11865;SDS011;5992;52.744;6.898;2022-10-16T03:12:19;1.10;;;1.00;;
11865;SDS011;5992;52.744;6.898;2022-10-16T03:15:19;2.30;;;1.70;;
11865;SDS011;5992;52.744;6.898;2022-10-16T03:18:32;1.95;;;1.40;;
11865;SDS011;5992;52.744;6.898;2022-10-16T03:21:32;1.70;;;1.40;;
11865;SDS011;5992;52.744;6.898;2022-10-16T03:24:47;1.50;;;1.40;;
11865;SDS011;5992;52.744;6.898;2022-10-16T03:28:00;1.90;;;1.27;;
11865;SDS011;5992;52.744;6.898;2022-10-16T03:31:13;1.40;;;1.10;;
11865;SDS011;5992;52.744;6.898;2022-10-16T03:34:13;1.30;;;1.20;;
11865;SDS011;5992;52.744;6.898;2022-10-16T03:37:25;3.90;;;1.40;;
11865;SDS011;5992;52.744;6.898;2022-10-16T03:40:26;2.30;;;1.50;;
11865;SDS011;5992;52.744;6.898;2022-10-16T03:43:51;3.07;;;1.60;;
11865;SDS011;5992;52.744;6.898;2022-10-16T03:46:51;6.70;;;1.50;;
11865;SDS011;5992;52.744;6.898;2022-10-16T03:50:04;1.70;;;1.30;;
11865;SDS011;5992;52.744;6.898;2022-10-16T03:53:17;1.70;;;1.50;;
11865;SDS011;5992;52.744;6.898;2022-10-16T03:56:42;1.53;;;1.10;;
11865;SDS011;5992;52.744;6.898;2022-10-16T03:59:55;2.63;;;1.50;;
11865;SDS011;5992;52.744;6.898;2022-10-16T04:03:07;1.60;;;1.47;;
11865;SDS011;5992;52.744;6.898;2022-10-16T04:06:19;2.40;;;1.20;;
11865;SDS011;5992;52.744;6.898;2022-10-16T04:09:32;5.03;;;1.60;;
11865;SDS011;5992;52.744;6.898;2022-10-16T04:12:33;1.60;;;1.40;;
11865;SDS011;5992;52.744;6.898;2022-10-16T04:15:59;2.65;;;1.65;;
11865;SDS011;5992;52.744;6.898;2022-10-16T04:18:59;2.63;;;1.57;;
11865;SDS011;5992;52.744;6.898;2022-10-16T04:22:11;1.33;;;1.30;;
11865;SDS011;5992;52.744;6.898;2022-10-16T04:25:27;2.40;;;1.93;;
11865;SDS011;5992;52.744;6.898;2022-10-16T04:28:41;1.50;;;1.40;;
11865;SDS011;5992;52.744;6.898;2022-10-16T04:31:53;1.80;;;1.70;;
11865;SDS011;5992;52.744;6.898;2022-10-16T04:35:06;2.60;;;1.50;;
11865;SDS011;5992;52.744;6.898;2022-10-16T04:38:18;2.30;;;1.40;;
11865;SDS011;5992;52.744;6.898;2022-10-16T04:41:30;5.73;;;1.97;;
11865;SDS011;5992;52.744;6.898;2022-10-16T04:44:31;4.50;;;2.63;;
11865;SDS011;5992;52.744;6.898;2022-10-16T04:47:57;2.43;;;2.00;;
11865;SDS011;5992;52.744;6.898;2022-10-16T04:51:09;3.37;;;1.90;;
11865;SDS011;5992;52.744;6.898;2022-10-16T04:54:36;2.40;;;1.80;;
11865;SDS011;5992;52.744;6.898;2022-10-16T04:57:36;2.05;;;1.80;;
11865;SDS011;5992;52.744;6.898;2022-10-16T05:00:49;1.70;;;1.60;;
11865;SDS011;5992;52.744;6.898;2022-10-16T05:04:02;1.70;;;1.60;;
11865;SDS011;5992;52.744;6.898;2022-10-16T05:07:14;1.90;;;1.80;;
11865;SDS011;5992;52.744;6.898;2022-10-16T05:10:14;2.47;;;1.77;;
11865;SDS011;5992;52.744;6.898;2022-10-16T05:13:27;3.20;;;1.75;;
11865;SDS011;5992;52.744;6.898;2022-10-16T05:16:28;1.85;;;1.75;;
11865;SDS011;5992;52.744;6.898;2022-10-16T05:19:52;1.70;;;1.40;;
11865;SDS011;5992;52.744;6.898;2022-10-16T05:22:55;3.40;;;1.73;;
11865;SDS011;5992;52.744;6.898;2022-10-16T05:26:07;2.17;;;1.77;;
11865;SDS011;5992;52.744;6.898;2022-10-16T05:29:19;3.30;;;1.77;;
11865;SDS011;5992;52.744;6.898;2022-10-16T05:32:47;2.00;;;1.60;;
11865;SDS011;5992;52.744;6.898;2022-10-16T05:36:00;1.90;;;1.80;;
11865;SDS011;5992;52.744;6.898;2022-10-16T05:39:26;3.75;;;1.80;;
11865;SDS011;5992;52.744;6.898;2022-10-16T05:42:26;4.45;;;1.60;;
11865;SDS011;5992;52.744;6.898;2022-10-16T05:45:39;3.80;;;1.67;;
11865;SDS011;5992;52.744;6.898;2022-10-16T05:48:43;2.17;;;1.57;;
11865;SDS011;5992;52.744;6.898;2022-10-16T05:52:08;1.30;;;1.30;;
11865;SDS011;5992;52.744;6.898;2022-10-16T05:55:08;1.60;;;1.40;;
11865;SDS011;5992;52.744;6.898;2022-10-16T05:58:21;2.20;;;1.73;;
11865;SDS011;5992;52.744;6.898;2022-10-16T06:01:33;1.47;;;1.37;;
11865;SDS011;5992;52.744;6.898;2022-10-16T06:04:46;3.45;;;1.50;;
11865;SDS011;5992;52.744;6.898;2022-10-16T06:07:59;1.60;;;1.50;;
11865;SDS011;5992;52.744;6.898;2022-10-16T06:11:14;3.00;;;1.30;;
11865;SDS011;5992;52.744;6.898;2022-10-16T06:14:25;1.43;;;1.33;;
11865;SDS011;5992;52.744;6.898;2022-10-16T06:17:37;1.47;;;1.37;;
11865;SDS011;5992;52.744;6.898;2022-10-16T06:20:38;4.00;;;1.30;;
11865;SDS011;5992;52.744;6.898;2022-10-16T06:24:03;2.13;;;1.43;;
11865;SDS011;5992;52.744;6.898;2022-10-16T06:27:04;1.50;;;1.40;;
11865;SDS011;5992;52.744;6.898;2022-10-16T06:30:19;3.33;;;1.43;;
11865;SDS011;5992;52.744;6.898;2022-10-16T06:33:19;3.05;;;1.35;;
11865;SDS011;5992;52.744;6.898;2022-10-16T06:36:33;1.70;;;1.43;;
11865;SDS011;5992;52.744;6.898;2022-10-16T06:39:45;1.20;;;1.20;;
11865;SDS011;5992;52.744;6.898;2022-10-16T06:42:57;1.90;;;1.30;;
11865;SDS011;5992;52.744;6.898;2022-10-16T06:45:57;1.33;;;1.27;;
11865;SDS011;5992;52.744;6.898;2022-10-16T06:49:21;2.10;;;1.17;;
11865;SDS011;5992;52.744;6.898;2022-10-16T06:52:23;1.57;;;1.47;;
11865;SDS011;5992;52.744;6.898;2022-10-16T06:55:48;2.70;;;1.60;;
11865;SDS011;5992;52.744;6.898;2022-10-16T06:58:49;2.30;;;1.65;;
11865;SDS011;5992;52.744;6.898;2022-10-16T07:02:13;2.15;;;1.55;;
11865;SDS011;5992;52.744;6.898;2022-10-16T07:05:13;1.60;;;1.47;;
11865;SDS011;5992;52.744;6.898;2022-10-16T07:08:27;1.20;;;1.20;;
11865;SDS011;5992;52.744;6.898;2022-10-16T07:11:39;5.07;;;1.70;;
11865;SDS011;5992;52.744;6.898;2022-10-16T07:15:04;3.45;;;1.30;;
11865;SDS011;5992;52.744;6.898;2022-10-16T07:18:04;3.30;;;1.60;;
11865;SDS011;5992;52.744;6.898;2022-10-16T07:21:17;4.35;;;1.80;;
11865;SDS011;5992;52.744;6.898;2022-10-16T07:24:30;1.30;;;1.20;;
11865;SDS011;5992;52.744;6.898;2022-10-16T07:27:56;1.63;;;1.20;;
11865;SDS011;5992;52.744;6.898;2022-10-16T07:30:59;3.90;;;1.20;;
11865;SDS011;5992;52.744;6.898;2022-10-16T07:34:26;2.00;;;1.83;;
11865;SDS011;5992;52.744;6.898;2022-10-16T07:37:26;3.10;;;1.50;;
11865;SDS011;5992;52.744;6.898;2022-10-16T07:40:40;1.40;;;1.30;;
11865;SDS011;5992;52.744;6.898;2022-10-16T07:43:52;1.85;;;1.30;;
11865;SDS011;5992;52.744;6.898;2022-10-16T07:47:16;1.60;;;1.50;;
11865;SDS011;5992;52.744;6.898;2022-10-16T07:50:16;2.10;;;1.40;;
11865;SDS011;5992;52.744;6.898;2022-10-16T07:53:29;1.80;;;1.25;;
11865;SDS011;5992;52.744;6.898;2022-10-16T07:56:42;1.37;;;1.27;;
11865;SDS011;5992;52.744;6.898;2022-10-16T08:00:06;3.23;;;1.50;;
11865;SDS011;5992;52.744;6.898;2022-10-16T08:03:19;1.50;;;1.33;;
11865;SDS011;5992;52.744;6.898;2022-10-16T08:06:20;3.10;;;1.70;;
11865;SDS011;5992;52.744;6.898;2022-10-16T08:09:43;2.93;;;1.80;;
11865;SDS011;5992;52.744;6.898;2022-10-16T08:12:45;1.50;;;1.40;;
11865;SDS011;5992;52.744;6.898;2022-10-16T08:16:09;3.70;;;1.70;;
11865;SDS011;5992;52.744;6.898;2022-10-16T08:19:21;2.10;;;1.40;;
11865;SDS011;5992;52.744;6.898;2022-10-16T08:22:34;3.65;;;1.55;;
11865;SDS011;5992;52.744;6.898;2022-10-16T08:25:35;1.40;;;1.30;;
11865;SDS011;5992;52.744;6.898;2022-10-16T08:29:00;2.00;;;1.40;;
11865;SDS011;5992;52.744;6.898;2022-10-16T08:32:12;1.73;;;1.60;;
11865;SDS011;5992;52.744;6.898;2022-10-16T08:35:24;1.70;;;1.40;;
11865;SDS011;5992;52.744;6.898;2022-10-16T08:38:24;4.20;;;1.53;;
11865;SDS011;5992;52.744;6.898;2022-10-16T08:41:49;1.30;;;1.20;;
11865;SDS011;5992;52.744;6.898;2022-10-16T08:48:43;3.10;;;1.27;;
11865;SDS011;5992;52.744;6.898;2022-10-16T08:51:55;1.50;;;1.20;;
11865;SDS011;5992;52.744;6.898;2022-10-16T08:55:25;1.93;;;1.40;;
11865;SDS011;5992;52.744;6.898;2022-10-16T08:58:36;1.50;;;1.40;;
11865;SDS011;5992;52.744;6.898;2022-10-16T09:01:49;1.60;;;1.43;;
11865;SDS011;5992;52.744;6.898;2022-10-16T09:05:06;1.17;;;1.13;;
11865;SDS011;5992;52.744;6.898;2022-10-16T09:08:30;1.75;;;1.65;;
11865;SDS011;5992;52.744;6.898;2022-10-16T09:11:45;2.45;;;2.10;;
11865;SDS011;5992;52.744;6.898;2022-10-16T09:15:17;2.30;;;1.20;;
11865;SDS011;5992;52.744;6.898;2022-10-16T09:18:29;1.90;;;1.50;;
11865;SDS011;5992;52.744;6.898;2022-10-16T09:21:54;1.60;;;1.25;;
11865;SDS011;5992;52.744;6.898;2022-10-16T09:25:10;4.13;;;1.13;;
11865;SDS011;5992;52.744;6.898;2022-10-16T09:28:34;2.67;;;1.30;;
11865;SDS011;5992;52.744;6.898;2022-10-16T09:31:35;1.23;;;1.10;;
11865;SDS011;5992;52.744;6.898;2022-10-16T09:35:02;4.05;;;1.50;;
11865;SDS011;5992;52.744;6.898;2022-10-16T09:38:04;1.60;;;1.30;;
11865;SDS011;5992;52.744;6.898;2022-10-16T09:41:29;1.53;;;1.10;;
11865;SDS011;5992;52.744;6.898;2022-10-16T09:44:41;2.37;;;1.13;;
11865;SDS011;5992;52.744;6.898;2022-10-16T09:48:10;1.05;;;0.90;;
11865;SDS011;5992;52.744;6.898;2022-10-16T09:51:23;2.20;;;1.23;;
11865;SDS011;5992;52.744;6.898;2022-10-16T09:54:51;4.70;;;1.40;;
11865;SDS011;5992;52.744;6.898;2022-10-16T09:58:03;3.17;;;1.20;;
11865;SDS011;5992;52.744;6.898;2022-10-16T10:01:29;3.43;;;1.43;;
11865;SDS011;5992;52.744;6.898;2022-10-16T10:04:53;3.00;;;1.43;;
11865;SDS011;5992;52.744;6.898;2022-10-16T10:08:05;2.77;;;1.67;;
11865;SDS011;5992;52.744;6.898;2022-10-16T10:11:40;2.47;;;1.30;;
11865;SDS011;5992;52.744;6.898;2022-10-16T10:15:04;5.00;;;1.77;;
11865;SDS011;5992;52.744;6.898;2022-10-16T10:18:29;3.80;;;1.33;;
11865;SDS011;5992;52.744;6.898;2022-10-16T10:21:32;4.40;;;1.57;;
11865;SDS011;5992;52.744;6.898;2022-10-16T10:24:56;4.90;;;1.25;;
11865;SDS011;5992;52.744;6.898;2022-10-16T10:28:20;7.70;;;2.05;;
11865;SDS011;5992;52.744;6.898;2022-10-16T10:31:44;3.30;;;1.40;;
11865;SDS011;5992;52.744;6.898;2022-10-16T10:34:59;5.80;;;1.90;;
11865;SDS011;5992;52.744;6.898;2022-10-16T10:38:25;2.37;;;1.20;;
11865;SDS011;5992;52.744;6.898;2022-10-16T10:45:13;3.05;;;1.10;;
11865;SDS011;5992;52.744;6.898;2022-10-16T10:48:40;3.10;;;1.40;;
11865;SDS011;5992;52.744;6.898;2022-10-16T10:51:53;6.15;;;1.60;;
11865;SDS011;5992;52.744;6.898;2022-10-16T10:55:08;1.80;;;1.00;;
11865;SDS011;5992;52.744;6.898;2022-10-16T11:02:00;2.60;;;1.10;;
11865;SDS011;5992;52.744;6.898;2022-10-16T11:05:28;9.73;;;1.67;;
11865;SDS011;5992;52.744;6.898;2022-10-16T11:08:41;6.00;;;1.90;;
11865;SDS011;5992;52.744;6.898;2022-10-16T11:12:05;7.17;;;1.60;;
11865;SDS011;5992;52.744;6.898;2022-10-16T11:15:18;5.10;;;1.50;;
11865;SDS011;5992;52.744;6.898;2022-10-16T11:18:45;4.33;;;1.40;;
11865;SDS011;5992;52.744;6.898;2022-10-16T11:21:58;4.13;;;1.53;;
11865;SDS011;5992;52.744;6.898;2022-10-16T11:25:21;5.43;;;1.03;;
11865;SDS011;5992;52.744;6.898;2022-10-16T11:28:32;5.35;;;1.45;;
11865;SDS011;5992;52.744;6.898;2022-10-16T11:31:57;4.45;;;1.80;;
11865;SDS011;5992;52.744;6.898;2022-10-16T11:35:11;4.07;;;1.57;;
11865;SDS011;5992;52.744;6.898;2022-10-16T11:38:39;5.57;;;1.67;;
11865;SDS011;5992;52.744;6.898;2022-10-16T11:41:52;4.90;;;1.40;;
11865;SDS011;5992;52.744;6.898;2022-10-16T11:45:18;8.23;;;1.67;;
11865;SDS011;5992;52.744;6.898;2022-10-16T11:48:30;3.00;;;1.63;;
11865;SDS011;5992;52.744;6.898;2022-10-16T11:51:56;4.00;;;1.60;;
11865;SDS011;5992;52.744;6.898;2022-10-16T11:55:12;3.97;;;1.33;;
11865;SDS011;5992;52.744;6.898;2022-10-16T11:58:34;3.53;;;1.53;;
11865;SDS011;5992;52.744;6.898;2022-10-16T12:01:46;6.30;;;1.57;;
11865;SDS011;5992;52.744;6.898;2022-10-16T12:05:16;2.20;;;1.37;;
11865;SDS011;5992;52.744;6.898;2022-10-16T12:08:28;4.97;;;1.90;;
11865;SDS011;5992;52.744;6.898;2022-10-16T12:11:54;3.33;;;1.53;;
11865;SDS011;5992;52.744;6.898;2022-10-16T12:15:18;3.23;;;1.23;;
11865;SDS011;5992;52.744;6.898;2022-10-16T12:18:43;3.37;;;1.43;;
11865;SDS011;5992;52.744;6.898;2022-10-16T12:21:55;3.67;;;1.40;;
11865;SDS011;5992;52.744;6.898;2022-10-16T12:25:24;5.75;;;1.60;;
11865;SDS011;5992;52.744;6.898;2022-10-16T12:28:35;4.75;;;2.00;;
11865;SDS011;5992;52.744;6.898;2022-10-16T12:31:48;2.77;;;1.50;;
11865;SDS011;5992;52.744;6.898;2022-10-16T12:35:00;6.03;;;1.43;;
11865;SDS011;5992;52.744;6.898;2022-10-16T12:38:26;3.83;;;1.37;;
11865;SDS011;5992;52.744;6.898;2022-10-16T12:41:42;3.83;;;1.63;;
11865;SDS011;5992;52.744;6.898;2022-10-16T12:45:28;7.75;;;1.90;;
11865;SDS011;5992;52.744;6.898;2022-10-16T12:48:41;2.35;;;1.10;;
11865;SDS011;5992;52.744;6.898;2022-10-16T12:52:04;2.35;;;1.15;;
11865;SDS011;5992;52.744;6.898;2022-10-16T12:55:17;5.70;;;1.40;;
11865;SDS011;5992;52.744;6.898;2022-10-16T12:58:54;3.53;;;1.20;;
11865;SDS011;5992;52.744;6.898;2022-10-16T13:02:11;4.70;;;1.37;;
11865;SDS011;5992;52.744;6.898;2022-10-16T13:05:35;1.15;;;1.05;;
11865;SDS011;5992;52.744;6.898;2022-10-16T13:08:52;3.60;;;1.20;;
11865;SDS011;5992;52.744;6.898;2022-10-16T13:12:21;3.17;;;1.30;;
11865;SDS011;5992;52.744;6.898;2022-10-16T13:15:37;2.70;;;1.17;;
11865;SDS011;5992;52.744;6.898;2022-10-16T13:19:04;4.17;;;1.40;;
11865;SDS011;5992;52.744;6.898;2022-10-16T13:22:15;5.33;;;1.40;;
11865;SDS011;5992;52.744;6.898;2022-10-16T13:25:43;5.67;;;1.27;;
11865;SDS011;5992;52.744;6.898;2022-10-16T13:28:53;4.00;;;1.43;;
11865;SDS011;5992;52.744;6.898;2022-10-16T13:32:20;4.65;;;1.60;;
11865;SDS011;5992;52.744;6.898;2022-10-16T13:35:35;2.23;;;1.40;;
11865;SDS011;5992;52.744;6.898;2022-10-16T13:39:00;5.70;;;1.90;;
11865;SDS011;5992;52.744;6.898;2022-10-16T13:42:12;5.43;;;1.53;;
11865;SDS011;5992;52.744;6.898;2022-10-16T13:45:35;7.65;;;1.80;;
11865;SDS011;5992;52.744;6.898;2022-10-16T13:48:37;3.73;;;1.30;;
11865;SDS011;5992;52.744;6.898;2022-10-16T13:52:01;5.50;;;1.47;;
11865;SDS011;5992;52.744;6.898;2022-10-16T13:55:01;3.20;;;1.20;;
11865;SDS011;5992;52.744;6.898;2022-10-16T13:58:25;5.97;;;1.23;;
11865;SDS011;5992;52.744;6.898;2022-10-16T14:01:29;3.83;;;1.23;;
11865;SDS011;5992;52.744;6.898;2022-10-16T14:04:54;3.77;;;1.13;;
11865;SDS011;5992;52.744;6.898;2022-10-16T14:08:09;3.20;;;1.30;;
11865;SDS011;5992;52.744;6.898;2022-10-16T14:11:36;3.60;;;1.60;;
11865;SDS011;5992;52.744;6.898;2022-10-16T14:14:47;4.57;;;1.27;;
11865;SDS011;5992;52.744;6.898;2022-10-16T14:18:13;4.67;;;1.20;;
11865;SDS011;5992;52.744;6.898;2022-10-16T14:21:26;4.40;;;1.27;;
11865;SDS011;5992;52.744;6.898;2022-10-16T14:24:52;6.63;;;1.33;;
11865;SDS011;5992;52.744;6.898;2022-10-16T14:27:59;3.80;;;1.27;;
11865;SDS011;5992;52.744;6.898;2022-10-16T14:31:27;2.40;;;0.80;;
11865;SDS011;5992;52.744;6.898;2022-10-16T14:34:42;3.80;;;1.23;;
11865;SDS011;5992;52.744;6.898;2022-10-16T14:37:56;2.57;;;1.30;;
11865;SDS011;5992;52.744;6.898;2022-10-16T14:41:09;2.53;;;1.03;;
11865;SDS011;5992;52.744;6.898;2022-10-16T14:44:33;1.77;;;1.23;;
11865;SDS011;5992;52.744;6.898;2022-10-16T14:47:49;2.90;;;1.20;;
11865;SDS011;5992;52.744;6.898;2022-10-16T14:51:12;1.55;;;0.90;;
11865;SDS011;5992;52.744;6.898;2022-10-16T14:54:28;5.37;;;1.70;;
11865;SDS011;5992;52.744;6.898;2022-10-16T14:57:54;1.70;;;0.87;;
11865;SDS011;5992;52.744;6.898;2022-10-16T15:00:55;5.40;;;1.10;;
11865;SDS011;5992;52.744;6.898;2022-10-16T15:04:19;5.73;;;1.60;;
11865;SDS011;5992;52.744;6.898;2022-10-16T15:07:31;3.90;;;1.27;;
11865;SDS011;5992;52.744;6.898;2022-10-16T15:10:45;1.60;;;1.15;;
11865;SDS011;5992;52.744;6.898;2022-10-16T15:13:58;3.05;;;1.00;;
11865;SDS011;5992;52.744;6.898;2022-10-16T15:17:22;6.77;;;1.30;;
11865;SDS011;5992;52.744;6.898;2022-10-16T15:20:22;2.43;;;0.97;;
11865;SDS011;5992;52.744;6.898;2022-10-16T15:23:46;6.07;;;1.23;;
11865;SDS011;5992;52.744;6.898;2022-10-16T15:26:47;4.75;;;1.20;;
11865;SDS011;5992;52.744;6.898;2022-10-16T15:30:12;3.75;;;1.20;;
11865;SDS011;5992;52.744;6.898;2022-10-16T15:33:13;2.27;;;0.93;;
11865;SDS011;5992;52.744;6.898;2022-10-16T15:36:39;2.40;;;1.40;;
11865;SDS011;5992;52.744;6.898;2022-10-16T15:39:51;3.20;;;0.90;;
11865;SDS011;5992;52.744;6.898;2022-10-16T15:43:04;2.13;;;1.30;;
11865;SDS011;5992;52.744;6.898;2022-10-16T15:46:18;4.33;;;1.57;;
11865;SDS011;5992;52.744;6.898;2022-10-16T15:49:44;1.30;;;1.00;;
11865;SDS011;5992;52.744;6.898;2022-10-16T15:52:44;3.03;;;1.53;;
11865;SDS011;5992;52.744;6.898;2022-10-16T15:56:09;3.67;;;1.57;;
11865;SDS011;5992;52.744;6.898;2022-10-16T15:59:21;1.93;;;1.30;;
11865;SDS011;5992;52.744;6.898;2022-10-16T16:02:49;1.93;;;1.03;;
11865;SDS011;5992;52.744;6.898;2022-10-16T16:06:13;3.60;;;1.30;;
11865;SDS011;5992;52.744;6.898;2022-10-16T16:09:25;3.10;;;0.90;;
11865;SDS011;5992;52.744;6.898;2022-10-16T16:12:38;1.93;;;1.20;;
11865;SDS011;5992;52.744;6.898;2022-10-16T16:15:51;1.65;;;1.10;;
11865;SDS011;5992;52.744;6.898;2022-10-16T16:19:17;1.20;;;1.10;;
11865;SDS011;5992;52.744;6.898;2022-10-16T16:22:17;1.77;;;1.10;;
11865;SDS011;5992;52.744;6.898;2022-10-16T16:25:29;2.37;;;1.20;;
11865;SDS011;5992;52.744;6.898;2022-10-16T16:28:42;1.40;;;1.05;;
11865;SDS011;5992;52.744;6.898;2022-10-16T16:32:06;3.40;;;1.20;;
11865;SDS011;5992;52.744;6.898;2022-10-16T16:35:18;0.87;;;0.87;;
11865;SDS011;5992;52.744;6.898;2022-10-16T16:38:33;2.57;;;1.03;;
11865;SDS011;5992;52.744;6.898;2022-10-16T16:41:45;2.67;;;1.20;;
11865;SDS011;5992;52.744;6.898;2022-10-16T16:45:10;1.30;;;1.10;;
11865;SDS011;5992;52.744;6.898;2022-10-16T16:48:11;1.63;;;0.93;;
11865;SDS011;5992;52.744;6.898;2022-10-16T16:51:36;2.15;;;1.40;;
11865;SDS011;5992;52.744;6.898;2022-10-16T16:54:48;1.17;;;1.00;;
11865;SDS011;5992;52.744;6.898;2022-10-16T16:58:01;3.57;;;1.20;;
11865;SDS011;5992;52.744;6.898;2022-10-16T17:01:02;1.63;;;1.10;;
11865;SDS011;5992;52.744;6.898;2022-10-16T17:04:27;2.00;;;1.10;;
11865;SDS011;5992;52.744;6.898;2022-10-16T17:07:40;1.55;;;1.20;;
11865;SDS011;5992;52.744;6.898;2022-10-16T17:10:55;1.65;;;1.05;;
11865;SDS011;5992;52.744;6.898;2022-10-16T17:14:07;2.05;;;1.20;;
11865;SDS011;5992;52.744;6.898;2022-10-16T17:17:20;1.65;;;1.30;;
11865;SDS011;5992;52.744;6.898;2022-10-16T17:20:21;2.23;;;1.30;;
11865;SDS011;5992;52.744;6.898;2022-10-16T17:23:50;3.90;;;1.37;;
11865;SDS011;5992;52.744;6.898;2022-10-16T17:27:02;2.10;;;1.10;;
11865;SDS011;5992;52.744;6.898;2022-10-16T17:30:14;1.65;;;1.10;;
11865;SDS011;5992;52.744;6.898;2022-10-16T17:33:15;2.10;;;1.30;;
11865;SDS011;5992;52.744;6.898;2022-10-16T17:36:30;3.30;;;1.35;;
11865;SDS011;5992;52.744;6.898;2022-10-16T17:39:45;2.03;;;1.10;;
11865;SDS011;5992;52.744;6.898;2022-10-16T17:42:58;1.83;;;1.33;;
11865;SDS011;5992;52.744;6.898;2022-10-16T17:46:01;1.65;;;1.05;;
11865;SDS011;5992;52.744;6.898;2022-10-16T17:49:16;2.75;;;1.25;;
11865;SDS011;5992;52.744;6.898;2022-10-16T17:52:30;2.23;;;1.27;;
11865;SDS011;5992;52.744;6.898;2022-10-16T17:55:55;1.27;;;1.13;;
11865;SDS011;5992;52.744;6.898;2022-10-16T17:58:56;1.93;;;1.63;;
11865;SDS011;5992;52.744;6.898;2022-10-16T18:02:19;2.43;;;1.53;;
11865;SDS011;5992;52.744;6.898;2022-10-16T18:05:31;2.30;;;1.50;;
11865;SDS011;5992;52.744;6.898;2022-10-16T18:08:33;3.40;;;1.70;;
11865;SDS011;5992;52.744;6.898;2022-10-16T18:11:57;2.75;;;1.80;;
11865;SDS011;5992;52.744;6.898;2022-10-16T18:14:58;2.00;;;1.67;;
11865;SDS011;5992;52.744;6.898;2022-10-16T18:18:11;2.70;;;1.67;;
11865;SDS011;5992;52.744;6.898;2022-10-16T18:21:24;9.13;;;2.10;;
11865;SDS011;5992;52.744;6.898;2022-10-16T18:24:49;3.50;;;1.90;;
11865;SDS011;5992;52.744;6.898;2022-10-16T18:28:02;2.00;;;1.90;;
11865;SDS011;5992;52.744;6.898;2022-10-16T18:31:15;6.43;;;2.10;;
11865;SDS011;5992;52.744;6.898;2022-10-16T18:34:26;3.47;;;2.30;;
11865;SDS011;5992;52.744;6.898;2022-10-16T18:37:38;2.60;;;2.00;;
11865;SDS011;5992;52.744;6.898;2022-10-16T18:40:40;4.95;;;2.50;;
11865;SDS011;5992;52.744;6.898;2022-10-16T18:44:05;4.10;;;2.10;;
11865;SDS011;5992;52.744;6.898;2022-10-16T18:47:16;4.90;;;2.00;;
11865;SDS011;5992;52.744;6.898;2022-10-16T18:50:29;3.13;;;2.10;;
11865;SDS011;5992;52.744;6.898;2022-10-16T18:53:29;4.10;;;2.50;;
11865;SDS011;5992;52.744;6.898;2022-10-16T18:56:43;3.67;;;2.20;;
11865;SDS011;5992;52.744;6.898;2022-10-16T18:59:57;4.00;;;2.35;;
11865;SDS011;5992;52.744;6.898;2022-10-16T19:03:09;8.40;;;4.15;;
11865;SDS011;5992;52.744;6.898;2022-10-16T19:06:10;4.53;;;2.87;;
11865;SDS011;5992;52.744;6.898;2022-10-16T19:09:33;5.67;;;2.63;;
11865;SDS011;5992;52.744;6.898;2022-10-16T19:12:35;3.65;;;2.30;;
11865;SDS011;5992;52.744;6.898;2022-10-16T19:15:59;2.20;;;1.60;;
11865;SDS011;5992;52.744;6.898;2022-10-16T19:19:00;3.07;;;2.37;;
11865;SDS011;5992;52.744;6.898;2022-10-16T19:22:23;2.90;;;2.60;;
11865;SDS011;5992;52.744;6.898;2022-10-16T19:25:26;4.47;;;2.10;;
11865;SDS011;5992;52.744;6.898;2022-10-16T19:28:40;5.10;;;2.40;;
11865;SDS011;5992;52.744;6.898;2022-10-16T19:31:52;4.60;;;2.70;;
11865;SDS011;5992;52.744;6.898;2022-10-16T19:35:05;6.25;;;2.55;;
11865;SDS011;5992;52.744;6.898;2022-10-16T19:38:17;2.60;;;2.30;;
11865;SDS011;5992;52.744;6.898;2022-10-16T19:41:35;5.70;;;2.43;;
11865;SDS011;5992;52.744;6.898;2022-10-16T19:44:49;4.50;;;2.75;;
11865;SDS011;5992;52.744;6.898;2022-10-16T19:48:13;3.50;;;2.50;;
11865;SDS011;5992;52.744;6.898;2022-10-16T19:51:25;3.30;;;1.90;;
11865;SDS011;5992;52.744;6.898;2022-10-16T19:54:49;5.50;;;2.60;;
11865;SDS011;5992;52.744;6.898;2022-10-16T19:57:49;3.90;;;2.43;;
11865;SDS011;5992;52.744;6.898;2022-10-16T20:01:02;4.03;;;2.40;;
11865;SDS011;5992;52.744;6.898;2022-10-16T20:04:29;5.85;;;3.30;;